Flight Track Log - Related Links

Times and Time Zones

All times are in EDT time to prevent confusion due to time zone crossing. See the EJA941 flight status page for this flight to view local times or setup timezone preferences in your user account.

Time Position Orientation Groundspeed Altitude Reporting Facility
EDT Latitude Longitude Course Direction KTS MPH feet Rate Location/Type
Thu 08:04:50 PM 39.4825 -74.6450 237° Southwest 218 251 3,600  Level Washington Center
Thu 08:06:49 PM 39.3981 -74.7725 229° Southwest 285 328 6,900 1,933 Climbing Washington Center
Thu 08:07:50 PM 39.3422 -74.8456 225° Southwest 290 334 9,400 1,513 Climbing Washington Center
Thu 08:08:48 PM 39.2803 -74.9319 227° Southwest 303 349 9,900 1,261 Climbing Washington Center
Thu 08:09:49 PM 39.2331 -75.0422 241° Southwest 338 389 11,900 992 Climbing Washington Center
Thu 08:10:00 PM 39.0782 -75.2770 237° Southwest  Level FlightAware Approximate
Thu 08:10:49 PM 39.1897 -75.1550 244° Southwest 345 397 11,900  Level Washington Center
Thu 08:11:50 PM 39.1297 -75.2653 235° Southwest 366 421 12,200 1,815 Climbing Washington Center
Thu 08:12:48 PM 39.0672 -75.3725 233° Southwest 373 429 15,500 1,881 Climbing Washington Center
Thu 08:13:48 PM 39.0028 -75.4847 234° Southwest 386 444 15,900 198 Climbing Washington Center
Thu 08:14:49 PM 38.9361 -75.6022 234° Southwest 398 458 15,900  Level Washington Center
Thu 08:15:49 PM 38.8653 -75.7303 235° Southwest 424 488 15,900  Level Washington Center
Thu 08:16:49 PM 38.7942 -75.8500 233° Southwest 434 499 15,900 595 Level Washington Center
Thu 08:17:50 PM 38.7250 -75.9694 233° Southwest 434 499 17,100 1,934 Climbing Washington Center
Thu 08:18:50 PM 38.6517 -76.0756 229° Southwest 423 487 19,800 1,475 Climbing Washington Center
Thu 08:19:48 PM 38.5575 -76.1731 219° Southwest 427 491 20,000 102 Climbing Washington Center
Thu 08:20:48 PM 38.4611 -76.2811 221° Southwest 451 519 20,000  Level Washington Center
Thu 08:21:49 PM 38.3625 -76.3833 219° Southwest 459 528 20,000  Level Washington Center
Thu 08:22:49 PM 38.2553 -76.4933 219° Southwest 459 528 20,000 -843 Level Washington Center
Thu 08:23:50 PM 38.1606 -76.5978 221° Southwest 454 522 18,300 -2,017 Descending Washington Center
Thu 08:24:48 PM 38.0969 -76.7211 237° Southwest 436 502 16,000 -1,311 Descending Washington Center
Thu 08:25:49 PM 38.0850 -76.8711 264° West 406 467 15,700 -1,033 Descending Washington Center
Thu 08:26:50 PM 38.0792 -77.0161 267° West 413 475 13,900 -1,587 Descending Washington Center
Thu 08:27:50 PM 38.0714 -77.1558 266° West 413 475 12,500 -1,424 Descending Washington Center
Thu 08:28:48 PM 38.0653 -77.2875 267° West 413 475 11,100 -1,042 Descending Washington Center
Thu 08:30:37 PM 38.0500 -77.5333 266° West 310 357 9,600 -1,141 Descending Potomac TRACON
Thu 08:31:31 PM 38.0500 -77.6167 270° West 280 322 8,000 -1,800 Descending Potomac TRACON
Thu 08:32:37 PM 38.0333 -77.7333 260° West 271 312 6,000 -1,000 Descending Potomac TRACON
Thu 08:33:31 PM 38.0333 -77.8000 270° West 266 306 6,000  Level Potomac TRACON
Thu 08:34:31 PM 38.0500 -77.9000 282° West 274 315 6,000  Level Potomac TRACON
Thu 08:35:32 PM 38.0833 -77.9833 297° West 273 314 6,000  Level Potomac TRACON
Thu 08:36:32 PM 38.1167 -78.0667 297° West 270 311 6,000  Level Potomac TRACON
Thu 08:37:32 PM 38.1500 -78.1500 297° West 224 258 6,000 -298 Level Potomac TRACON
Thu 08:38:33 PM 38.1833 -78.2167 302° West 223 257 5,400 -793 Descending Potomac TRACON
Thu 08:39:33 PM 38.2167 -78.2833 302° West 214 246 4,400 -850 Descending Potomac TRACON
Thu 08:40:33 PM 38.2333 -78.3333 293° West 183 211 3,700 -950 Descending Potomac TRACON
Thu 08:41:33 PM 38.2167 -78.4000 252° West 182 209 2,500 -900 Descending Potomac TRACON
Thu 08:43:33 PM 38.1667 -78.4333 208° Southwest 125 144 1,000 -750 Descending Potomac TRACON
Thu 08:45:00 PM 38.1333 -78.4500 260° West  Level FlightAware Approximate
Thu 08:52:00 PM 38.1386 -78.4529 260° West  Level Estimated
Thu 08:53:00 PM 38.1333 -78.4500 260° West  Level FlightAware Approximate
Thu 08:54:00 PM 38.1386 -78.4529 260° West  Level Estimated
Thu 08:55:00 PM 38.1333 -78.4500 260° West  Level FlightAware Approximate
Thu 08:56:00 PM 38.1386 -78.4529 260° West  Level Estimated
Thu 08:57:00 PM 38.1333 -78.4500 260° West  Level FlightAware Approximate
Thu 08:58:00 PM 38.1386 -78.4529 260° West  Level Estimated

Login

Don't have an account? Register now (free) for customized features, flight alerts, and more!